sensor_id;sensor_type;location;lat;lon;timestamp;P1;durP1;ratioP1;P2;durP2;ratioP2
46116;SDS011;32591;48.102;11.772;2023-04-23T00:00:29;6.38;;;2.53;;
46116;SDS011;32591;48.102;11.772;2023-04-23T00:02:58;5.07;;;2.72;;
46116;SDS011;32591;48.102;11.772;2023-04-23T00:05:33;2.70;;;2.05;;
46116;SDS011;32591;48.102;11.772;2023-04-23T00:08:01;5.10;;;2.28;;
46116;SDS011;32591;48.102;11.772;2023-04-23T00:10:30;3.42;;;2.20;;
46116;SDS011;32591;48.102;11.772;2023-04-23T00:12:57;4.43;;;2.38;;
46116;SDS011;32591;48.102;11.772;2023-04-23T00:15:25;3.47;;;2.17;;
46116;SDS011;32591;48.102;11.772;2023-04-23T00:17:54;3.28;;;2.58;;
46116;SDS011;32591;48.102;11.772;2023-04-23T00:20:21;4.35;;;2.50;;
46116;SDS011;32591;48.102;11.772;2023-04-23T00:22:48;4.55;;;2.30;;
46116;SDS011;32591;48.102;11.772;2023-04-23T00:25:15;3.88;;;2.13;;
46116;SDS011;32591;48.102;11.772;2023-04-23T00:27:42;3.40;;;2.15;;
46116;SDS011;32591;48.102;11.772;2023-04-23T00:30:10;3.17;;;2.25;;
46116;SDS011;32591;48.102;11.772;2023-04-23T00:32:37;4.70;;;2.20;;
46116;SDS011;32591;48.102;11.772;2023-04-23T00:35:06;5.28;;;2.33;;
46116;SDS011;32591;48.102;11.772;2023-04-23T00:37:33;5.50;;;2.58;;
46116;SDS011;32591;48.102;11.772;2023-04-23T00:40:00;4.40;;;2.38;;
46116;SDS011;32591;48.102;11.772;2023-04-23T00:42:28;4.82;;;2.22;;
46116;SDS011;32591;48.102;11.772;2023-04-23T00:44:56;5.30;;;2.60;;
46116;SDS011;32591;48.102;11.772;2023-04-23T00:47:23;5.45;;;2.58;;
46116;SDS011;32591;48.102;11.772;2023-04-23T00:49:51;4.32;;;2.35;;
46116;SDS011;32591;48.102;11.772;2023-04-23T00:52:21;2.88;;;2.22;;
46116;SDS011;32591;48.102;11.772;2023-04-23T00:54:47;5.18;;;2.30;;
46116;SDS011;32591;48.102;11.772;2023-04-23T00:57:14;3.13;;;2.13;;
46116;SDS011;32591;48.102;11.772;2023-04-23T00:59:42;4.43;;;2.47;;
46116;SDS011;32591;48.102;11.772;2023-04-23T01:02:10;3.17;;;2.17;;
46116;SDS011;32591;48.102;11.772;2023-04-23T01:04:37;4.25;;;2.22;;
46116;SDS011;32591;48.102;11.772;2023-04-23T01:07:06;3.63;;;2.65;;
46116;SDS011;32591;48.102;11.772;2023-04-23T01:09:34;5.05;;;2.35;;
46116;SDS011;32591;48.102;11.772;2023-04-23T01:12:01;4.75;;;2.20;;
46116;SDS011;32591;48.102;11.772;2023-04-23T01:14:31;5.60;;;2.38;;
46116;SDS011;32591;48.102;11.772;2023-04-23T01:16:58;4.95;;;2.83;;
46116;SDS011;32591;48.102;11.772;2023-04-23T01:19:26;3.42;;;2.50;;
46116;SDS011;32591;48.102;11.772;2023-04-23T01:21:52;3.50;;;2.35;;
46116;SDS011;32591;48.102;11.772;2023-04-23T01:24:25;5.30;;;2.20;;
46116;SDS011;32591;48.102;11.772;2023-04-23T01:26:53;3.65;;;2.25;;
46116;SDS011;32591;48.102;11.772;2023-04-23T01:29:20;11.02;;;3.47;;
46116;SDS011;32591;48.102;11.772;2023-04-23T01:31:47;3.20;;;2.13;;
46116;SDS011;32591;48.102;11.772;2023-04-23T01:34:15;3.05;;;2.17;;
46116;SDS011;32591;48.102;11.772;2023-04-23T01:36:43;3.63;;;2.40;;
46116;SDS011;32591;48.102;11.772;2023-04-23T01:39:10;3.45;;;2.47;;
46116;SDS011;32591;48.102;11.772;2023-04-23T01:41:39;3.22;;;2.38;;
46116;SDS011;32591;48.102;11.772;2023-04-23T01:44:06;3.28;;;2.05;;
46116;SDS011;32591;48.102;11.772;2023-04-23T01:46:33;5.93;;;2.33;;
46116;SDS011;32591;48.102;11.772;2023-04-23T01:49:00;3.17;;;2.10;;
46116;SDS011;32591;48.102;11.772;2023-04-23T01:51:28;4.78;;;2.20;;
46116;SDS011;32591;48.102;11.772;2023-04-23T01:53:55;3.20;;;2.00;;
46116;SDS011;32591;48.102;11.772;2023-04-23T01:56:24;3.28;;;2.65;;
46116;SDS011;32591;48.102;11.772;2023-04-23T01:58:54;3.88;;;2.00;;
46116;SDS011;32591;48.102;11.772;2023-04-23T02:01:21;3.22;;;1.90;;
46116;SDS011;32591;48.102;11.772;2023-04-23T02:03:49;4.07;;;2.15;;
46116;SDS011;32591;48.102;11.772;2023-04-23T02:06:16;2.00;;;1.60;;
46116;SDS011;32591;48.102;11.772;2023-04-23T02:08:44;4.00;;;1.88;;
46116;SDS011;32591;48.102;11.772;2023-04-23T02:11:11;3.28;;;2.00;;
46116;SDS011;32591;48.102;11.772;2023-04-23T02:13:38;4.13;;;2.00;;
46116;SDS011;32591;48.102;11.772;2023-04-23T02:16:06;3.42;;;2.08;;
46116;SDS011;32591;48.102;11.772;2023-04-23T02:18:33;2.47;;;1.85;;
46116;SDS011;32591;48.102;11.772;2023-04-23T02:21:00;3.85;;;2.47;;
46116;SDS011;32591;48.102;11.772;2023-04-23T02:23:29;4.70;;;2.03;;
46116;SDS011;32591;48.102;11.772;2023-04-23T02:25:56;2.83;;;2.10;;
46116;SDS011;32591;48.102;11.772;2023-04-23T02:28:23;3.40;;;2.15;;
46116;SDS011;32591;48.102;11.772;2023-04-23T02:30:50;2.53;;;1.90;;
46116;SDS011;32591;48.102;11.772;2023-04-23T02:33:18;4.07;;;2.03;;
46116;SDS011;32591;48.102;11.772;2023-04-23T02:35:45;2.78;;;1.90;;
46116;SDS011;32591;48.102;11.772;2023-04-23T02:38:12;5.13;;;2.33;;
46116;SDS011;32591;48.102;11.772;2023-04-23T02:40:39;5.63;;;2.20;;
46116;SDS011;32591;48.102;11.772;2023-04-23T02:43:07;2.90;;;2.28;;
46116;SDS011;32591;48.102;11.772;2023-04-23T02:45:34;5.40;;;2.35;;
46116;SDS011;32591;48.102;11.772;2023-04-23T02:48:01;2.10;;;1.75;;
46116;SDS011;32591;48.102;11.772;2023-04-23T02:50:29;2.67;;;2.20;;
46116;SDS011;32591;48.102;11.772;2023-04-23T02:52:56;7.75;;;1.85;;
46116;SDS011;32591;48.102;11.772;2023-04-23T02:55:23;4.53;;;2.33;;
46116;SDS011;32591;48.102;11.772;2023-04-23T02:57:53;2.95;;;2.10;;
46116;SDS011;32591;48.102;11.772;2023-04-23T03:00:20;4.13;;;2.85;;
46116;SDS011;32591;48.102;11.772;2023-04-23T03:02:48;3.55;;;2.25;;
46116;SDS011;32591;48.102;11.772;2023-04-23T03:05:15;3.70;;;2.25;;
46116;SDS011;32591;48.102;11.772;2023-04-23T03:07:43;2.78;;;2.00;;
46116;SDS011;32591;48.102;11.772;2023-04-23T03:10:10;3.50;;;2.35;;
46116;SDS011;32591;48.102;11.772;2023-04-23T03:12:37;3.83;;;2.03;;
46116;SDS011;32591;48.102;11.772;2023-04-23T03:15:05;4.15;;;2.45;;
46116;SDS011;32591;48.102;11.772;2023-04-23T03:17:32;3.03;;;2.05;;
46116;SDS011;32591;48.102;11.772;2023-04-23T03:19:59;3.08;;;2.10;;
46116;SDS011;32591;48.102;11.772;2023-04-23T03:22:27;5.50;;;2.78;;
46116;SDS011;32591;48.102;11.772;2023-04-23T03:24:55;3.70;;;2.13;;
46116;SDS011;32591;48.102;11.772;2023-04-23T03:27:22;3.53;;;2.35;;
46116;SDS011;32591;48.102;11.772;2023-04-23T03:29:49;3.05;;;1.98;;
46116;SDS011;32591;48.102;11.772;2023-04-23T03:32:16;3.50;;;2.10;;
46116;SDS011;32591;48.102;11.772;2023-04-23T03:34:42;3.80;;;2.38;;
46116;SDS011;32591;48.102;11.772;2023-04-23T03:37:09;3.72;;;2.38;;
46116;SDS011;32591;48.102;11.772;2023-04-23T03:39:36;3.45;;;2.40;;
46116;SDS011;32591;48.102;11.772;2023-04-23T03:42:05;3.53;;;2.85;;
46116;SDS011;32591;48.102;11.772;2023-04-23T03:44:32;4.40;;;2.20;;
46116;SDS011;32591;48.102;11.772;2023-04-23T03:46:59;3.30;;;2.20;;
46116;SDS011;32591;48.102;11.772;2023-04-23T03:49:26;3.15;;;2.28;;
46116;SDS011;32591;48.102;11.772;2023-04-23T03:51:53;4.30;;;2.85;;
46116;SDS011;32591;48.102;11.772;2023-04-23T03:54:19;3.03;;;2.10;;
46116;SDS011;32591;48.102;11.772;2023-04-23T03:56:48;6.03;;;3.50;;
46116;SDS011;32591;48.102;11.772;2023-04-23T03:59:16;4.75;;;2.53;;
46116;SDS011;32591;48.102;11.772;2023-04-23T04:01:44;4.50;;;2.10;;
46116;SDS011;32591;48.102;11.772;2023-04-23T04:04:12;4.10;;;2.42;;
46116;SDS011;32591;48.102;11.772;2023-04-23T04:06:39;3.65;;;2.33;;
46116;SDS011;32591;48.102;11.772;2023-04-23T04:09:06;3.30;;;2.33;;
46116;SDS011;32591;48.102;11.772;2023-04-23T04:11:33;3.30;;;2.47;;
46116;SDS011;32591;48.102;11.772;2023-04-23T04:14:01;3.83;;;2.97;;
46116;SDS011;32591;48.102;11.772;2023-04-23T04:16:29;4.45;;;2.38;;
46116;SDS011;32591;48.102;11.772;2023-04-23T04:18:56;3.97;;;2.70;;
46116;SDS011;32591;48.102;11.772;2023-04-23T04:21:23;4.50;;;2.58;;
46116;SDS011;32591;48.102;11.772;2023-04-23T04:23:50;4.95;;;2.70;;
46116;SDS011;32591;48.102;11.772;2023-04-23T04:26:17;4.55;;;2.25;;
46116;SDS011;32591;48.102;11.772;2023-04-23T04:28:45;5.20;;;2.35;;
46116;SDS011;32591;48.102;11.772;2023-04-23T04:31:12;4.47;;;2.60;;
46116;SDS011;32591;48.102;11.772;2023-04-23T04:33:41;3.55;;;2.30;;
46116;SDS011;32591;48.102;11.772;2023-04-23T04:36:10;4.75;;;2.67;;
46116;SDS011;32591;48.102;11.772;2023-04-23T04:38:37;3.92;;;2.42;;
46116;SDS011;32591;48.102;11.772;2023-04-23T04:41:05;3.33;;;2.30;;
46116;SDS011;32591;48.102;11.772;2023-04-23T04:43:33;3.90;;;2.45;;
46116;SDS011;32591;48.102;11.772;2023-04-23T04:46:00;6.13;;;2.80;;
46116;SDS011;32591;48.102;11.772;2023-04-23T04:48:29;3.15;;;2.10;;
46116;SDS011;32591;48.102;11.772;2023-04-23T04:50:57;7.22;;;3.00;;
46116;SDS011;32591;48.102;11.772;2023-04-23T04:53:24;5.97;;;2.03;;
46116;SDS011;32591;48.102;11.772;2023-04-23T04:55:51;3.78;;;2.58;;
46116;SDS011;32591;48.102;11.772;2023-04-23T04:58:18;7.35;;;2.40;;
46116;SDS011;32591;48.102;11.772;2023-04-23T05:00:45;3.58;;;2.58;;
46116;SDS011;32591;48.102;11.772;2023-04-23T05:03:15;5.32;;;2.35;;
46116;SDS011;32591;48.102;11.772;2023-04-23T05:05:42;6.72;;;3.05;;
46116;SDS011;32591;48.102;11.772;2023-04-23T05:08:11;5.50;;;3.10;;
46116;SDS011;32591;48.102;11.772;2023-04-23T05:10:40;5.95;;;2.90;;
46116;SDS011;32591;48.102;11.772;2023-04-23T05:13:07;4.82;;;3.15;;
46116;SDS011;32591;48.102;11.772;2023-04-23T05:15:34;4.88;;;3.35;;
46116;SDS011;32591;48.102;11.772;2023-04-23T05:18:02;5.68;;;3.50;;
46116;SDS011;32591;48.102;11.772;2023-04-23T05:20:30;6.13;;;3.70;;
46116;SDS011;32591;48.102;11.772;2023-04-23T05:22:57;4.35;;;3.17;;
46116;SDS011;32591;48.102;11.772;2023-04-23T05:25:27;4.90;;;3.45;;
46116;SDS011;32591;48.102;11.772;2023-04-23T05:27:55;5.63;;;3.80;;
46116;SDS011;32591;48.102;11.772;2023-04-23T05:30:22;4.95;;;3.30;;
46116;SDS011;32591;48.102;11.772;2023-04-23T05:32:49;3.88;;;2.60;;
46116;SDS011;32591;48.102;11.772;2023-04-23T05:35:16;4.70;;;2.78;;
46116;SDS011;32591;48.102;11.772;2023-04-23T05:37:43;4.68;;;2.97;;
46116;SDS011;32591;48.102;11.772;2023-04-23T05:40:10;5.88;;;3.10;;
46116;SDS011;32591;48.102;11.772;2023-04-23T05:42:39;5.13;;;2.85;;
46116;SDS011;32591;48.102;11.772;2023-04-23T05:45:06;5.90;;;3.47;;
46116;SDS011;32591;48.102;11.772;2023-04-23T05:47:34;4.32;;;3.17;;
46116;SDS011;32591;48.102;11.772;2023-04-23T05:50:01;5.07;;;2.90;;
46116;SDS011;32591;48.102;11.772;2023-04-23T05:52:28;7.28;;;3.58;;
46116;SDS011;32591;48.102;11.772;2023-04-23T05:54:57;4.95;;;2.78;;
46116;SDS011;32591;48.102;11.772;2023-04-23T05:57:24;6.35;;;3.28;;
46116;SDS011;32591;48.102;11.772;2023-04-23T05:59:52;4.65;;;3.13;;
46116;SDS011;32591;48.102;11.772;2023-04-23T06:02:20;5.03;;;3.70;;
46116;SDS011;32591;48.102;11.772;2023-04-23T06:04:46;5.75;;;2.83;;
46116;SDS011;32591;48.102;11.772;2023-04-23T06:07:13;6.03;;;3.47;;
46116;SDS011;32591;48.102;11.772;2023-04-23T06:09:41;3.97;;;2.83;;
46116;SDS011;32591;48.102;11.772;2023-04-23T06:12:08;6.20;;;3.08;;
46116;SDS011;32591;48.102;11.772;2023-04-23T06:14:36;6.30;;;3.60;;
46116;SDS011;32591;48.102;11.772;2023-04-23T06:17:04;6.05;;;3.97;;
46116;SDS011;32591;48.102;11.772;2023-04-23T06:19:31;6.90;;;3.65;;
46116;SDS011;32591;48.102;11.772;2023-04-23T06:21:58;7.03;;;3.70;;
46116;SDS011;32591;48.102;11.772;2023-04-23T06:24:25;6.78;;;3.83;;
46116;SDS011;32591;48.102;11.772;2023-04-23T06:26:52;5.03;;;3.65;;
46116;SDS011;32591;48.102;11.772;2023-04-23T06:29:19;7.38;;;4.18;;
46116;SDS011;32591;48.102;11.772;2023-04-23T06:31:46;6.47;;;4.43;;
46116;SDS011;32591;48.102;11.772;2023-04-23T06:34:14;6.53;;;3.97;;
46116;SDS011;32591;48.102;11.772;2023-04-23T06:36:41;4.88;;;3.70;;
46116;SDS011;32591;48.102;11.772;2023-04-23T06:39:09;6.50;;;3.78;;
46116;SDS011;32591;48.102;11.772;2023-04-23T06:41:35;7.60;;;3.83;;
46116;SDS011;32591;48.102;11.772;2023-04-23T06:44:03;6.75;;;3.78;;
46116;SDS011;32591;48.102;11.772;2023-04-23T06:46:30;7.35;;;3.70;;
46116;SDS011;32591;48.102;11.772;2023-04-23T06:48:57;6.80;;;3.75;;
46116;SDS011;32591;48.102;11.772;2023-04-23T06:51:25;8.88;;;5.13;;
46116;SDS011;32591;48.102;11.772;2023-04-23T06:53:52;8.45;;;3.78;;
46116;SDS011;32591;48.102;11.772;2023-04-23T06:56:19;5.70;;;4.18;;
46116;SDS011;32591;48.102;11.772;2023-04-23T06:58:46;5.78;;;3.90;;
46116;SDS011;32591;48.102;11.772;2023-04-23T07:01:13;6.65;;;3.80;;
46116;SDS011;32591;48.102;11.772;2023-04-23T07:03:40;6.30;;;3.70;;
46116;SDS011;32591;48.102;11.772;2023-04-23T07:06:08;5.50;;;3.08;;
46116;SDS011;32591;48.102;11.772;2023-04-23T07:08:36;7.63;;;3.58;;
46116;SDS011;32591;48.102;11.772;2023-04-23T07:11:04;6.30;;;3.22;;
46116;SDS011;32591;48.102;11.772;2023-04-23T07:13:31;5.13;;;3.55;;
46116;SDS011;32591;48.102;11.772;2023-04-23T07:15:58;5.18;;;3.60;;
46116;SDS011;32591;48.102;11.772;2023-04-23T07:18:25;6.30;;;3.75;;
46116;SDS011;32591;48.102;11.772;2023-04-23T07:20:52;5.78;;;4.35;;
46116;SDS011;32591;48.102;11.772;2023-04-23T07:23:19;5.72;;;3.50;;
46116;SDS011;32591;48.102;11.772;2023-04-23T07:25:47;5.28;;;3.88;;
46116;SDS011;32591;48.102;11.772;2023-04-23T07:28:14;6.75;;;3.72;;
46116;SDS011;32591;48.102;11.772;2023-04-23T07:30:41;5.35;;;3.13;;
46116;SDS011;32591;48.102;11.772;2023-04-23T07:33:08;6.45;;;3.85;;
46116;SDS011;32591;48.102;11.772;2023-04-23T07:35:35;6.30;;;3.70;;
46116;SDS011;32591;48.102;11.772;2023-04-23T07:38:02;5.63;;;3.75;;
46116;SDS011;32591;48.102;11.772;2023-04-23T07:40:29;5.28;;;3.40;;
46116;SDS011;32591;48.102;11.772;2023-04-23T07:42:58;4.63;;;3.05;;
46116;SDS011;32591;48.102;11.772;2023-04-23T07:45:25;4.65;;;3.10;;
46116;SDS011;32591;48.102;11.772;2023-04-23T07:47:52;6.47;;;3.88;;
46116;SDS011;32591;48.102;11.772;2023-04-23T07:50:19;4.85;;;3.22;;
46116;SDS011;32591;48.102;11.772;2023-04-23T07:52:46;8.13;;;3.75;;
46116;SDS011;32591;48.102;11.772;2023-04-23T07:55:14;4.38;;;3.13;;
46116;SDS011;32591;48.102;11.772;2023-04-23T07:57:41;5.80;;;4.15;;
46116;SDS011;32591;48.102;11.772;2023-04-23T08:00:10;4.60;;;3.22;;
46116;SDS011;32591;48.102;11.772;2023-04-23T08:02:38;5.63;;;3.10;;
46116;SDS011;32591;48.102;11.772;2023-04-23T08:05:06;5.70;;;3.55;;
46116;SDS011;32591;48.102;11.772;2023-04-23T08:07:33;7.25;;;3.35;;
46116;SDS011;32591;48.102;11.772;2023-04-23T08:10:01;5.05;;;2.90;;
46116;SDS011;32591;48.102;11.772;2023-04-23T08:12:30;4.93;;;2.80;;
46116;SDS011;32591;48.102;11.772;2023-04-23T08:14:59;4.05;;;2.90;;
46116;SDS011;32591;48.102;11.772;2023-04-23T08:17:28;5.78;;;3.00;;
46116;SDS011;32591;48.102;11.772;2023-04-23T08:19:56;4.32;;;2.70;;
46116;SDS011;32591;48.102;11.772;2023-04-23T08:22:23;5.03;;;3.22;;
46116;SDS011;32591;48.102;11.772;2023-04-23T08:24:50;6.85;;;3.00;;
46116;SDS011;32591;48.102;11.772;2023-04-23T08:27:17;5.45;;;3.17;;
46116;SDS011;32591;48.102;11.772;2023-04-23T08:29:44;4.25;;;2.50;;
46116;SDS011;32591;48.102;11.772;2023-04-23T08:32:12;4.28;;;3.17;;
46116;SDS011;32591;48.102;11.772;2023-04-23T08:34:41;4.30;;;2.90;;
46116;SDS011;32591;48.102;11.772;2023-04-23T08:37:08;4.85;;;3.35;;
46116;SDS011;32591;48.102;11.772;2023-04-23T08:39:35;5.50;;;3.03;;
46116;SDS011;32591;48.102;11.772;2023-04-23T08:42:03;5.53;;;3.15;;
46116;SDS011;32591;48.102;11.772;2023-04-23T08:44:37;4.80;;;2.90;;
46116;SDS011;32591;48.102;11.772;2023-04-23T08:47:07;4.28;;;3.13;;
46116;SDS011;32591;48.102;11.772;2023-04-23T08:49:38;5.28;;;2.45;;
46116;SDS011;32591;48.102;11.772;2023-04-23T08:52:14;3.85;;;2.67;;
46116;SDS011;32591;48.102;11.772;2023-04-23T08:54:44;4.25;;;2.63;;
46116;SDS011;32591;48.102;11.772;2023-04-23T08:57:15;6.35;;;2.40;;
46116;SDS011;32591;48.102;11.772;2023-04-23T08:59:43;3.67;;;2.67;;
46116;SDS011;32591;48.102;11.772;2023-04-23T09:02:11;4.32;;;2.90;;
46116;SDS011;32591;48.102;11.772;2023-04-23T09:04:40;5.38;;;2.70;;
46116;SDS011;32591;48.102;11.772;2023-04-23T09:07:10;5.10;;;2.58;;
46116;SDS011;32591;48.102;11.772;2023-04-23T09:09:39;3.03;;;2.00;;
46116;SDS011;32591;48.102;11.772;2023-04-23T09:12:07;3.13;;;2.10;;
46116;SDS011;32591;48.102;11.772;2023-04-23T09:14:34;5.25;;;3.17;;
46116;SDS011;32591;48.102;11.772;2023-04-23T09:17:02;5.25;;;2.47;;
46116;SDS011;32591;48.102;11.772;2023-04-23T09:19:29;3.55;;;2.60;;
46116;SDS011;32591;48.102;11.772;2023-04-23T09:21:58;3.35;;;2.00;;
46116;SDS011;32591;48.102;11.772;2023-04-23T09:24:26;3.20;;;1.90;;
46116;SDS011;32591;48.102;11.772;2023-04-23T09:26:54;4.63;;;2.15;;
46116;SDS011;32591;48.102;11.772;2023-04-23T09:29:22;3.38;;;2.17;;
46116;SDS011;32591;48.102;11.772;2023-04-23T09:31:51;3.08;;;2.25;;
46116;SDS011;32591;48.102;11.772;2023-04-23T09:34:20;4.07;;;2.53;;
46116;SDS011;32591;48.102;11.772;2023-04-23T09:36:50;3.80;;;3.40;;
46116;SDS011;32591;48.102;11.772;2023-04-23T09:39:20;4.13;;;1.90;;
46116;SDS011;32591;48.102;11.772;2023-04-23T09:41:50;3.20;;;2.20;;
46116;SDS011;32591;48.102;11.772;2023-04-23T09:44:19;3.03;;;1.73;;
46116;SDS011;32591;48.102;11.772;2023-04-23T09:46:47;3.17;;;2.50;;
46116;SDS011;32591;48.102;11.772;2023-04-23T09:49:15;2.47;;;1.77;;
46116;SDS011;32591;48.102;11.772;2023-04-23T09:51:43;3.15;;;2.22;;
46116;SDS011;32591;48.102;11.772;2023-04-23T09:54:12;3.78;;;2.17;;
46116;SDS011;32591;48.102;11.772;2023-04-23T09:56:42;2.90;;;2.15;;
46116;SDS011;32591;48.102;11.772;2023-04-23T09:59:19;2.83;;;1.90;;
46116;SDS011;32591;48.102;11.772;2023-04-23T10:01:47;4.45;;;2.50;;
46116;SDS011;32591;48.102;11.772;2023-04-23T10:04:16;3.63;;;1.92;;
46116;SDS011;32591;48.102;11.772;2023-04-23T10:06:45;3.53;;;2.60;;
46116;SDS011;32591;48.102;11.772;2023-04-23T10:09:13;3.35;;;2.15;;
46116;SDS011;32591;48.102;11.772;2023-04-23T10:11:42;2.28;;;1.73;;
46116;SDS011;32591;48.102;11.772;2023-04-23T10:14:09;5.10;;;1.88;;
46116;SDS011;32591;48.102;11.772;2023-04-23T10:16:36;3.33;;;2.03;;
46116;SDS011;32591;48.102;11.772;2023-04-23T10:19:06;2.53;;;2.00;;
46116;SDS011;32591;48.102;11.772;2023-04-23T10:21:37;2.80;;;1.80;;
46116;SDS011;32591;48.102;11.772;2023-04-23T10:24:05;2.60;;;1.92;;
46116;SDS011;32591;48.102;11.772;2023-04-23T10:26:35;3.08;;;1.88;;
46116;SDS011;32591;48.102;11.772;2023-04-23T10:29:06;2.40;;;1.85;;
46116;SDS011;32591;48.102;11.772;2023-04-23T10:31:39;4.07;;;1.98;;
46116;SDS011;32591;48.102;11.772;2023-04-23T10:34:08;6.75;;;1.83;;
46116;SDS011;32591;48.102;11.772;2023-04-23T10:36:36;2.45;;;1.80;;
46116;SDS011;32591;48.102;11.772;2023-04-23T10:39:03;2.67;;;1.80;;
46116;SDS011;32591;48.102;11.772;2023-04-23T10:41:33;2.95;;;1.90;;
46116;SDS011;32591;48.102;11.772;2023-04-23T10:44:03;2.35;;;1.60;;
46116;SDS011;32591;48.102;11.772;2023-04-23T10:46:32;3.30;;;1.65;;
46116;SDS011;32591;48.102;11.772;2023-04-23T10:49:06;2.53;;;1.63;;
46116;SDS011;32591;48.102;11.772;2023-04-23T10:51:38;2.65;;;1.92;;
46116;SDS011;32591;48.102;11.772;2023-04-23T10:54:08;3.50;;;1.70;;
46116;SDS011;32591;48.102;11.772;2023-04-23T10:56:39;2.50;;;1.73;;
46116;SDS011;32591;48.102;11.772;2023-04-23T10:59:09;3.00;;;2.53;;
46116;SDS011;32591;48.102;11.772;2023-04-23T11:01:45;3.90;;;1.58;;
46116;SDS011;32591;48.102;11.772;2023-04-23T11:04:19;2.40;;;1.73;;
46116;SDS011;32591;48.102;11.772;2023-04-23T11:06:52;1.73;;;1.42;;
46116;SDS011;32591;48.102;11.772;2023-04-23T11:09:27;2.67;;;1.50;;
46116;SDS011;32591;48.102;11.772;2023-04-23T11:11:56;2.78;;;1.75;;
46116;SDS011;32591;48.102;11.772;2023-04-23T11:14:36;2.38;;;1.70;;
46116;SDS011;32591;48.102;11.772;2023-04-23T11:17:11;3.03;;;2.00;;
46116;SDS011;32591;48.102;11.772;2023-04-23T11:19:40;2.10;;;1.50;;
46116;SDS011;32591;48.102;11.772;2023-04-23T11:22:38;2.22;;;1.70;;
46116;SDS011;32591;48.102;11.772;2023-04-23T11:25:10;2.65;;;1.98;;
46116;SDS011;32591;48.102;11.772;2023-04-23T11:27:39;2.15;;;1.63;;
46116;SDS011;32591;48.102;11.772;2023-04-23T11:30:10;2.20;;;1.75;;
46116;SDS011;32591;48.102;11.772;2023-04-23T11:32:39;2.50;;;1.90;;
46116;SDS011;32591;48.102;11.772;2023-04-23T11:35:09;2.25;;;1.40;;
46116;SDS011;32591;48.102;11.772;2023-04-23T11:37:39;2.50;;;1.67;;
46116;SDS011;32591;48.102;11.772;2023-04-23T11:40:08;1.92;;;1.50;;
46116;SDS011;32591;48.102;11.772;2023-04-23T11:42:41;2.80;;;1.55;;
46116;SDS011;32591;48.102;11.772;2023-04-23T11:45:14;3.00;;;2.25;;
46116;SDS011;32591;48.102;11.772;2023-04-23T11:47:43;3.83;;;1.88;;
46116;SDS011;32591;48.102;11.772;2023-04-23T11:50:17;2.83;;;2.10;;
46116;SDS011;32591;48.102;11.772;2023-04-23T11:52:45;4.35;;;2.40;;
46116;SDS011;32591;48.102;11.772;2023-04-23T11:55:13;2.72;;;1.95;;
46116;SDS011;32591;48.102;11.772;2023-04-23T11:57:41;2.88;;;2.17;;
46116;SDS011;32591;48.102;11.772;2023-04-23T12:00:11;3.95;;;2.33;;
46116;SDS011;32591;48.102;11.772;2023-04-23T12:02:53;4.00;;;2.40;;
46116;SDS011;32591;48.102;11.772;2023-04-23T12:05:27;3.63;;;2.22;;
46116;SDS011;32591;48.102;11.772;2023-04-23T12:08:05;3.70;;;2.35;;
46116;SDS011;32591;48.102;11.772;2023-04-23T12:10:40;6.38;;;2.45;;
46116;SDS011;32591;48.102;11.772;2023-04-23T12:13:12;3.15;;;2.25;;
46116;SDS011;32591;48.102;11.772;2023-04-23T12:15:44;4.18;;;2.25;;
46116;SDS011;32591;48.102;11.772;2023-04-23T12:18:12;3.65;;;2.65;;
46116;SDS011;32591;48.102;11.772;2023-04-23T12:20:41;2.90;;;2.03;;
46116;SDS011;32591;48.102;11.772;2023-04-23T12:23:08;5.20;;;2.70;;
46116;SDS011;32591;48.102;11.772;2023-04-23T12:25:35;3.80;;;2.30;;
46116;SDS011;32591;48.102;11.772;2023-04-23T12:28:02;3.10;;;2.40;;
46116;SDS011;32591;48.102;11.772;2023-04-23T12:30:31;5.82;;;2.38;;
46116;SDS011;32591;48.102;11.772;2023-04-23T12:33:00;3.13;;;2.40;;
46116;SDS011;32591;48.102;11.772;2023-04-23T12:35:37;5.68;;;2.78;;
46116;SDS011;32591;48.102;11.772;2023-04-23T12:38:07;5.40;;;2.90;;
46116;SDS011;32591;48.102;11.772;2023-04-23T12:40:48;4.35;;;2.60;;
46116;SDS011;32591;48.102;11.772;2023-04-23T12:43:15;5.35;;;3.03;;
46116;SDS011;32591;48.102;11.772;2023-04-23T12:45:42;3.50;;;2.53;;
46116;SDS011;32591;48.102;11.772;2023-04-23T12:48:09;3.53;;;2.60;;
46116;SDS011;32591;48.102;11.772;2023-04-23T12:50:36;4.78;;;3.03;;
46116;SDS011;32591;48.102;11.772;2023-04-23T12:53:05;3.42;;;2.30;;
46116;SDS011;32591;48.102;11.772;2023-04-23T12:55:32;4.05;;;2.85;;
46116;SDS011;32591;48.102;11.772;2023-04-23T12:58:00;4.25;;;2.55;;
46116;SDS011;32591;48.102;11.772;2023-04-23T13:00:27;4.78;;;2.30;;
46116;SDS011;32591;48.102;11.772;2023-04-23T13:02:54;3.25;;;2.17;;
46116;SDS011;32591;48.102;11.772;2023-04-23T13:05:21;4.90;;;2.60;;
46116;SDS011;32591;48.102;11.772;2023-04-23T13:07:48;5.35;;;2.45;;
46116;SDS011;32591;48.102;11.772;2023-04-23T13:10:19;5.57;;;2.72;;
46116;SDS011;32591;48.102;11.772;2023-04-23T13:12:46;5.20;;;2.47;;
46116;SDS011;32591;48.102;11.772;2023-04-23T13:15:13;2.85;;;2.13;;
46116;SDS011;32591;48.102;11.772;2023-04-23T13:17:40;2.83;;;2.05;;
46116;SDS011;32591;48.102;11.772;2023-04-23T13:20:07;3.55;;;2.67;;
46116;SDS011;32591;48.102;11.772;2023-04-23T13:22:35;2.92;;;2.35;;
46116;SDS011;32591;48.102;11.772;2023-04-23T13:25:02;2.67;;;2.20;;
46116;SDS011;32591;48.102;11.772;2023-04-23T13:27:31;3.42;;;2.08;;
46116;SDS011;32591;48.102;11.772;2023-04-23T13:29:58;5.57;;;2.65;;
46116;SDS011;32591;48.102;11.772;2023-04-23T13:32:26;3.45;;;2.45;;
46116;SDS011;32591;48.102;11.772;2023-04-23T13:34:56;5.10;;;2.65;;
46116;SDS011;32591;48.102;11.772;2023-04-23T13:37:27;3.28;;;2.13;;
46116;SDS011;32591;48.102;11.772;2023-04-23T13:39:55;4.80;;;2.65;;
46116;SDS011;32591;48.102;11.772;2023-04-23T13:42:22;3.67;;;2.38;;
46116;SDS011;32591;48.102;11.772;2023-04-23T13:44:50;4.13;;;2.85;;
46116;SDS011;32591;48.102;11.772;2023-04-23T13:47:17;3.38;;;2.65;;
46116;SDS011;32591;48.102;11.772;2023-04-23T13:49:44;2.92;;;2.30;;
46116;SDS011;32591;48.102;11.772;2023-04-23T13:52:11;2.67;;;2.25;;
46116;SDS011;32591;48.102;11.772;2023-04-23T13:54:38;3.53;;;2.30;;
46116;SDS011;32591;48.102;11.772;2023-04-23T13:57:05;3.80;;;2.53;;
46116;SDS011;32591;48.102;11.772;2023-04-23T13:59:32;3.83;;;2.40;;
46116;SDS011;32591;48.102;11.772;2023-04-23T14:02:01;2.50;;;2.08;;
46116;SDS011;32591;48.102;11.772;2023-04-23T14:04:28;3.20;;;2.10;;
46116;SDS011;32591;48.102;11.772;2023-04-23T14:06:55;4.25;;;2.10;;
46116;SDS011;32591;48.102;11.772;2023-04-23T14:09:22;2.83;;;2.15;;
46116;SDS011;32591;48.102;11.772;2023-04-23T14:11:49;3.20;;;2.33;;
46116;SDS011;32591;48.102;11.772;2023-04-23T14:14:16;4.43;;;2.20;;
46116;SDS011;32591;48.102;11.772;2023-04-23T14:16:43;2.28;;;2.00;;
46116;SDS011;32591;48.102;11.772;2023-04-23T14:19:12;3.17;;;2.17;;
46116;SDS011;32591;48.102;11.772;2023-04-23T14:21:39;3.22;;;2.30;;
46116;SDS011;32591;48.102;11.772;2023-04-23T14:24:07;4.00;;;2.80;;
46116;SDS011;32591;48.102;11.772;2023-04-23T14:26:36;2.75;;;1.95;;
46116;SDS011;32591;48.102;11.772;2023-04-23T14:29:08;3.00;;;2.25;;
46116;SDS011;32591;48.102;11.772;2023-04-23T14:31:39;3.13;;;2.53;;
46116;SDS011;32591;48.102;11.772;2023-04-23T14:34:06;4.35;;;2.65;;
46116;SDS011;32591;48.102;11.772;2023-04-23T14:36:34;5.10;;;2.75;;
46116;SDS011;32591;48.102;11.772;2023-04-23T14:39:01;3.70;;;2.38;;